Time,TemperatureF,DewpointF,PressureIn,WindDirection,WindDirectionDegrees,WindSpeedMPH,WindSpeedGustMPH,Humidity,HourlyPrecipIn,Conditions,Clouds,dailyrainin,SoftwareType,DateUTC
2013-08-28 00:05:00,79.7,69.9,29.81,SW,225,0.0,0.0,72,0.00,,,0.00,WUHU21023XXSP,2013-08-28 05:05:00,
2013-08-28 00:12:00,79.7,69.9,29.82,SW,225,16.0,16.0,72,0.00,,,0.00,WUHU21023XXSP,2013-08-28 05:12:00,
2013-08-28 00:18:00,79.7,70.3,29.82,SW,225,0.0,16.0,73,0.00,,,0.00,WUHU21023XXSP,2013-08-28 05:18:00,
2013-08-28 00:25:00,79.3,69.9,29.82,SW,225,0.0,0.0,73,0.00,,,0.00,WUHU21023XXSP,2013-08-28 05:25:00,
2013-08-28 00:31:00,79.0,69.9,29.82,SW,225,0.0,0.0,74,0.00,,,0.00,WUHU21023XXSP,2013-08-28 05:31:00,
2013-08-28 00:38:00,78.6,69.6,29.81,SW,225,0.0,0.0,74,0.00,,,0.00,WUHU21023XXSP,2013-08-28 05:38:00,
2013-08-28 00:44:00,78.4,69.4,29.81,SW,225,0.0,0.0,74,0.00,,,0.00,WUHU21023XXSP,2013-08-28 05:44:00,
2013-08-28 00:50:00,77.9,68.9,29.81,SW,225,0.0,0.0,74,0.00,,,0.00,WUHU21023XXSP,2013-08-28 05:50:00,
2013-08-28 00:57:00,77.7,68.7,29.82,SW,225,0.0,0.0,74,0.00,,,0.00,WUHU21023XXSP,2013-08-28 05:57:00,
2013-08-28 01:04:00,77.5,69.0,29.82,SW,225,0.0,0.0,75,0.00,,,0.00,WUHU21023XXSP,2013-08-28 06:04:00,
2013-08-28 01:10:00,77.4,68.8,29.82,SW,225,0.0,0.0,75,0.00,,,0.00,WUHU21023XXSP,2013-08-28 06:10:00,
2013-08-28 01:16:00,77.2,68.6,29.82,SW,225,0.0,0.0,75,0.00,,,0.00,WUHU21023XXSP,2013-08-28 06:16:00,
2013-08-28 01:22:00,76.8,68.3,29.82,SW,225,0.0,0.0,75,0.00,,,0.00,WUHU21023XXSP,2013-08-28 06:22:00,
2013-08-28 01:29:00,76.8,68.6,29.82,SW,225,0.0,0.0,76,0.00,,,0.00,WUHU21023XXSP,2013-08-28 06:29:00,
2013-08-28 01:35:00,76.6,68.5,29.82,SW,225,0.0,0.0,76,0.00,,,0.00,WUHU21023XXSP,2013-08-28 06:35:00,
2013-08-28 01:42:00,76.5,68.3,29.82,SW,225,0.0,0.0,76,0.00,,,0.00,WUHU21023XXSP,2013-08-28 06:42:00,
2013-08-28 01:48:00,76.1,68.0,29.82,SW,225,0.0,0.0,76,0.00,,,0.00,WUHU21023XXSP,2013-08-28 06:48:00,
2013-08-28 01:55:00,75.9,67.8,29.82,SW,225,0.0,0.0,76,0.00,,,0.00,WUHU21023XXSP,2013-08-28 06:55:00,
2013-08-28 02:01:00,75.7,67.6,29.82,SW,225,0.0,0.0,76,0.00,,,0.00,WUHU21023XXSP,2013-08-28 07:01:00,
2013-08-28 02:07:00,75.6,67.5,29.82,SW,225,0.0,0.0,76,0.00,,,0.00,WUHU21023XXSP,2013-08-28 07:07:00,
2013-08-28 02:14:00,75.6,67.5,29.83,SW,225,0.0,0.0,76,0.00,,,0.00,WUHU21023XXSP,2013-08-28 07:14:00,
2013-08-28 02:20:00,75.4,67.3,29.82,SW,225,0.0,0.0,76,0.00,,,0.00,WUHU21023XXSP,2013-08-28 07:20:00,
2013-08-28 02:27:00,75.0,67.0,29.82,SW,225,0.0,0.0,76,0.00,,,0.00,WUHU21023XXSP,2013-08-28 07:27:00,
2013-08-28 02:33:00,75.0,67.0,29.83,SW,225,0.0,0.0,76,0.00,,,0.00,WUHU21023XXSP,2013-08-28 07:33:00,
2013-08-28 02:40:00,75.0,67.4,29.83,SW,225,0.0,0.0,77,0.00,,,0.00,WUHU21023XXSP,2013-08-28 07:40:00,
2013-08-28 02:46:00,74.8,67.2,29.83,SW,225,0.0,0.0,77,0.00,,,0.00,WUHU21023XXSP,2013-08-28 07:46:00,
2013-08-28 02:52:00,74.8,67.2,29.83,SW,225,0.0,0.0,77,0.00,,,0.00,WUHU21023XXSP,2013-08-28 07:52:00,
2013-08-28 02:59:00,74.7,67.0,29.84,SW,225,0.0,0.0,77,0.00,,,0.00,WUHU21023XXSP,2013-08-28 07:59:00,
2013-08-28 03:05:00,74.5,66.8,29.83,SW,225,0.0,0.0,77,0.00,,,0.00,WUHU21023XXSP,2013-08-28 08:05:00,
2013-08-28 03:12:00,74.5,66.8,29.83,ENE,67,0.0,0.0,77,0.00,,,0.00,WUHU21023XXSP,2013-08-28 08:12:00,
2013-08-28 03:18:00,74.5,66.8,29.84,ENE,67,0.0,0.0,77,0.00,,,0.00,WUHU21023XXSP,2013-08-28 08:18:00,
2013-08-28 03:24:00,74.3,66.7,29.84,NE,45,0.0,0.0,77,0.00,,,0.00,WUHU21023XXSP,2013-08-28 08:24:00,
2013-08-28 03:31:00,74.3,66.7,29.85,ENE,67,0.0,0.0,77,0.00,,,0.00,WUHU21023XXSP,2013-08-28 08:31:00,
2013-08-28 03:37:00,74.3,66.7,29.85,East,90,0.0,0.0,77,0.00,,,0.00,WUHU21023XXSP,2013-08-28 08:37:00,
2013-08-28 03:44:00,74.5,66.8,29.85,SE,135,0.0,0.0,77,0.00,,,0.00,WUHU21023XXSP,2013-08-28 08:44:00,
2013-08-28 03:50:00,74.5,66.8,29.86,NW,315,0.0,0.0,77,0.00,,,0.00,WUHU21023XXSP,2013-08-28 08:50:00,
2013-08-28 03:57:00,74.5,66.8,29.86,ENE,67,0.0,0.0,77,0.00,,,0.00,WUHU21023XXSP,2013-08-28 08:57:00,
2013-08-28 04:03:00,74.3,66.7,29.87,NE,45,0.0,13.0,77,0.00,,,0.00,WUHU21023XXSP,2013-08-28 09:03:00,
2013-08-28 04:09:00,74.1,66.5,29.87,NE,45,0.0,13.0,77,0.00,,,0.00,WUHU21023XXSP,2013-08-28 09:09:00,
2013-08-28 04:16:00,73.9,66.3,29.87,ENE,67,0.0,4.0,77,0.00,,,0.00,WUHU21023XXSP,2013-08-28 09:16:00,
2013-08-28 04:22:00,73.8,66.1,29.87,ENE,67,0.0,0.0,77,0.00,,,0.00,WUHU21023XXSP,2013-08-28 09:22:00,
2013-08-28 04:29:00,73.6,65.9,29.87,ENE,67,0.0,0.0,77,0.00,,,0.00,WUHU21023XXSP,2013-08-28 09:29:00,
2013-08-28 04:35:00,73.4,65.8,29.87,ENE,67,0.0,0.0,77,0.00,,,0.00,WUHU21023XXSP,2013-08-28 09:35:00,
2013-08-28 04:42:00,73.2,65.6,29.87,ENE,67,0.0,0.0,77,0.00,,,0.00,WUHU21023XXSP,2013-08-28 09:42:00,
2013-08-28 04:48:00,73.2,65.6,29.87,ENE,67,0.0,0.0,77,0.00,,,0.00,WUHU21023XXSP,2013-08-28 09:48:00,
2013-08-28 04:53:00,73.2,65.6,29.88,ENE,67,0.0,0.0,77,0.00,,,0.00,WUHU21023XXSP,2013-08-28 09:53:00,
2013-08-28 04:54:00,73.2,65.6,29.88,ENE,67,0.0,0.0,77,0.00,,,0.00,WUHU21023XXSP,2013-08-28 09:54:00,
2013-08-28 05:01:00,73.0,65.4,29.88,ENE,67,0.0,0.0,77,0.00,,,0.00,WUHU21023XXSP,2013-08-28 10:01:00,
2013-08-28 05:07:00,73.0,65.4,29.88,ENE,67,0.0,0.0,77,0.00,,,0.00,WUHU21023XXSP,2013-08-28 10:07:00,
2013-08-28 05:14:00,73.0,65.4,29.88,ENE,67,0.0,0.0,77,0.00,,,0.00,WUHU21023XXSP,2013-08-28 10:14:00,
2013-08-28 05:20:00,73.0,65.4,29.88,ENE,67,0.0,0.0,77,0.00,,,0.00,WUHU21023XXSP,2013-08-28 10:20:00,
2013-08-28 05:27:00,73.0,65.4,29.88,ENE,67,0.0,0.0,77,0.00,,,0.00,WUHU21023XXSP,2013-08-28 10:27:00,
2013-08-28 05:33:00,73.0,65.4,29.89,ENE,67,0.0,0.0,77,0.00,,,0.00,WUHU21023XXSP,2013-08-28 10:33:00,
2013-08-28 05:39:00,72.9,65.2,29.89,NE,45,0.0,0.0,77,0.00,,,0.00,WUHU21023XXSP,2013-08-28 10:39:00,
2013-08-28 05:46:00,72.9,65.2,29.89,NE,45,0.0,0.0,77,0.00,,,0.00,WUHU21023XXSP,2013-08-28 10:46:00,
2013-08-28 05:52:00,72.7,65.1,29.89,NE,45,0.0,0.0,77,0.00,,,0.00,WUHU21023XXSP,2013-08-28 10:52:00,
2013-08-28 05:59:00,72.7,65.1,29.90,NE,45,0.0,0.0,77,0.00,,,0.00,WUHU21023XXSP,2013-08-28 10:59:00,
2013-08-28 06:05:00,72.7,65.1,29.90,ENE,67,0.0,0.0,77,0.00,,,0.00,WUHU21023XXSP,2013-08-28 11:05:00,
2013-08-28 06:12:00,72.5,64.9,29.90,ESE,112,0.0,0.0,77,0.00,,,0.00,WUHU21023XXSP,2013-08-28 11:12:00,
2013-08-28 06:18:00,72.5,64.9,29.90,North,0,0.0,0.0,77,0.00,,,0.00,WUHU21023XXSP,2013-08-28 11:18:00,
2013-08-28 06:24:00,72.5,64.9,29.90,NNE,22,0.0,0.0,77,0.00,,,0.00,WUHU21023XXSP,2013-08-28 11:24:00,
2013-08-28 06:31:00,72.5,64.9,29.91,NNE,22,0.0,0.0,77,0.00,,,0.00,WUHU21023XXSP,2013-08-28 11:31:00,
2013-08-28 06:37:00,72.5,64.9,29.91,NNE,22,0.0,0.0,77,0.00,,,0.00,WUHU21023XXSP,2013-08-28 11:37:00,
2013-08-28 06:44:00,72.7,65.1,29.91,NNE,22,0.0,0.0,77,0.00,,,0.00,WUHU21023XXSP,2013-08-28 11:44:00,
2013-08-28 06:50:00,72.7,65.1,29.91,NNE,22,0.0,0.0,77,0.00,,,0.00,WUHU21023XXSP,2013-08-28 11:50:00,
2013-08-28 06:56:00,72.7,65.1,29.92,NNE,22,0.0,0.0,77,0.00,,,0.00,WUHU21023XXSP,2013-08-28 11:56:00,
2013-08-28 07:03:00,72.7,65.1,29.92,NNE,22,0.0,0.0,77,0.00,,,0.00,WUHU21023XXSP,2013-08-28 12:03:00,
2013-08-28 07:09:00,72.7,65.1,29.92,NNE,22,0.0,0.0,77,0.00,,,0.00,WUHU21023XXSP,2013-08-28 12:09:00,
2013-08-28 07:16:00,72.9,65.2,29.92,NNE,22,0.0,0.0,77,0.00,,,0.00,WUHU21023XXSP,2013-08-28 12:16:00,
2013-08-28 07:22:00,73.0,65.4,29.93,NNE,22,0.0,0.0,77,0.00,,,0.00,WUHU21023XXSP,2013-08-28 12:22:00,
2013-08-28 07:29:00,73.0,65.4,29.93,NE,45,0.0,0.0,77,0.00,,,0.00,WUHU21023XXSP,2013-08-28 12:29:00,
2013-08-28 07:35:00,73.0,65.4,29.93,NE,45,0.0,0.0,77,0.00,,,0.00,WUHU21023XXSP,2013-08-28 12:35:00,
2013-08-28 07:42:00,73.2,65.6,29.93,NE,45,0.0,0.0,77,0.00,,,0.00,WUHU21023XXSP,2013-08-28 12:42:00,
2013-08-28 07:48:00,73.2,65.6,29.93,WNW,292,0.0,0.0,77,0.00,,,0.00,WUHU21023XXSP,2013-08-28 12:48:00,
2013-08-28 07:54:00,73.2,65.6,29.93,NNW,337,0.0,0.0,77,0.00,,,0.00,WUHU21023XXSP,2013-08-28 12:54:00,
2013-08-28 08:01:00,73.2,65.6,29.93,NNW,337,0.0,0.0,77,0.00,,,0.00,WUHU21023XXSP,2013-08-28 13:01:00,
2013-08-28 08:07:00,73.2,65.6,29.93,NNW,337,0.0,0.0,77,0.00,,,0.00,WUHU21023XXSP,2013-08-28 13:07:00,
2013-08-28 08:14:00,73.2,65.6,29.93,NNW,337,0.0,0.0,77,0.00,,,0.00,WUHU21023XXSP,2013-08-28 13:14:00,
2013-08-28 08:20:00,73.0,65.4,29.93,NNW,337,0.0,0.0,77,0.00,,,0.00,WUHU21023XXSP,2013-08-28 13:20:00,
2013-08-28 08:26:00,73.2,65.6,29.93,NE,45,13.0,13.0,77,0.00,,,0.00,WUHU21023XXSP,2013-08-28 13:26:00,
2013-08-28 08:33:00,73.2,65.6,29.94,SSE,157,0.0,13.0,77,0.00,,,0.00,WUHU21023XXSP,2013-08-28 13:33:00,
2013-08-28 08:39:00,73.2,65.6,29.94,WNW,292,0.0,0.0,77,0.00,,,0.00,WUHU21023XXSP,2013-08-28 13:39:00,
2013-08-28 08:46:00,73.2,65.6,29.94,WNW,292,0.0,0.0,77,0.00,,,0.00,WUHU21023XXSP,2013-08-28 13:46:00,
2013-08-28 08:52:00,73.2,65.6,29.94,SSW,202,0.0,0.0,77,0.00,,,0.00,WUHU21023XXSP,2013-08-28 13:52:00,
2013-08-28 08:59:00,73.2,65.6,29.94,ENE,67,0.0,0.0,77,0.00,,,0.00,WUHU21023XXSP,2013-08-28 13:59:00,
2013-08-28 09:05:00,73.6,65.9,29.94,ENE,67,0.0,0.0,77,0.00,,,0.00,WUHU21023XXSP,2013-08-28 14:05:00,
2013-08-28 09:11:00,73.9,66.3,29.94,SSE,157,0.0,0.0,77,0.00,,,0.00,WUHU21023XXSP,2013-08-28 14:11:00,
2013-08-28 09:18:00,74.1,65.9,29.94,South,180,0.0,0.0,76,0.00,,,0.00,WUHU21023XXSP,2013-08-28 14:18:00,
2013-08-28 09:24:00,74.3,66.3,29.94,ESE,112,0.0,0.0,76,0.00,,,0.00,WUHU21023XXSP,2013-08-28 14:24:00,
2013-08-28 09:31:00,74.8,66.8,29.94,ENE,67,20.0,20.0,76,0.00,,,0.00,WUHU21023XXSP,2013-08-28 14:31:00,
2013-08-28 09:38:00,75.0,67.0,29.94,ENE,67,0.0,25.0,76,0.00,,,0.00,WUHU21023XXSP,2013-08-28 14:38:00,
2013-08-28 09:44:00,75.4,67.3,29.94,East,90,0.0,25.0,76,0.00,,,0.00,WUHU21023XXSP,2013-08-28 14:44:00,
2013-08-28 09:51:00,75.7,67.6,29.95,ENE,67,0.0,0.0,76,0.00,,,0.00,WUHU21023XXSP,2013-08-28 14:51:00,
2013-08-28 09:57:00,75.9,67.4,29.95,NE,45,3.0,16.0,75,0.00,,,0.00,WUHU21023XXSP,2013-08-28 14:57:00,
2013-08-28 10:04:00,76.3,67.8,29.95,East,90,36.0,36.0,75,0.00,,,0.00,WUHU21023XXSP,2013-08-28 15:04:00,
2013-08-28 10:10:00,77.0,68.5,29.95,North,0,0.0,38.0,75,0.00,,,0.00,WUHU21023XXSP,2013-08-28 15:10:00,
2013-08-28 10:16:00,77.4,68.4,29.95,NNE,22,25.0,38.0,74,0.00,,,0.00,WUHU21023XXSP,2013-08-28 15:16:00,
2013-08-28 10:23:00,77.4,68.4,29.95,ENE,67,0.0,25.0,74,0.00,,,0.00,WUHU21023XXSP,2013-08-28 15:23:00,
2013-08-28 10:30:00,77.2,68.2,29.96,NW,315,0.0,0.0,74,0.00,,,0.00,WUHU21023XXSP,2013-08-28 15:30:00,
2013-08-28 10:37:00,77.2,68.2,29.96,West,270,0.0,0.0,74,0.00,,,0.00,WUHU21023XXSP,2013-08-28 15:37:00,
2013-08-28 10:43:00,77.0,68.1,29.96,West,270,0.0,0.0,74,0.00,,,0.00,WUHU21023XXSP,2013-08-28 15:43:00,
2013-08-28 10:49:00,77.0,68.1,29.97,West,270,0.0,0.0,74,0.00,,,0.00,WUHU21023XXSP,2013-08-28 15:49:00,
2013-08-28 10:56:00,76.8,67.9,29.96,NNW,337,0.0,0.0,74,0.00,,,0.00,WUHU21023XXSP,2013-08-28 15:56:00,
2013-08-28 11:02:00,76.8,67.9,29.97,NNE,22,0.0,0.0,74,0.00,,,0.00,WUHU21023XXSP,2013-08-28 16:02:00,
2013-08-28 11:09:00,76.8,67.9,29.97,WNW,292,0.0,0.0,74,0.00,,,0.00,WUHU21023XXSP,2013-08-28 16:09:00,
2013-08-28 11:16:00,77.2,68.2,29.97,East,90,0.0,0.0,74,0.00,,,0.00,WUHU21023XXSP,2013-08-28 16:16:00,
2013-08-28 11:23:00,77.4,68.4,29.97,NNE,22,0.0,0.0,74,0.00,,,0.00,WUHU21023XXSP,2013-08-28 16:23:00,
2013-08-28 11:29:00,77.7,68.4,29.97,NNW,337,0.0,0.0,73,0.00,,,0.00,WUHU21023XXSP,2013-08-28 16:29:00,
2013-08-28 11:36:00,78.1,68.7,29.97,NNW,337,34.0,34.0,73,0.00,,,0.00,WUHU21023XXSP,2013-08-28 16:36:00,
2013-08-28 11:42:00,78.4,69.0,29.97,NE,45,39.0,39.0,73,0.00,,,0.00,WUHU21023XXSP,2013-08-28 16:42:00,
2013-08-28 11:48:00,78.6,69.2,29.97,NE,45,41.0,43.0,73,0.00,,,0.00,WUHU21023XXSP,2013-08-28 16:48:00,
2013-08-28 11:54:00,79.0,69.2,29.97,ENE,67,42.0,44.0,72,0.00,,,0.00,WUHU21023XXSP,2013-08-28 16:54:00,
2013-08-28 12:00:00,79.0,69.2,29.97,NW,315,23.0,44.0,72,0.00,,,0.00,WUHU21023XXSP,2013-08-28 17:00:00,
2013-08-28 12:07:00,79.2,69.3,29.97,ENE,67,31.0,37.0,72,0.00,,,0.00,WUHU21023XXSP,2013-08-28 17:07:00,
2013-08-28 12:14:00,79.5,69.7,29.98,ENE,67,21.0,31.0,72,0.00,,,0.00,WUHU21023XXSP,2013-08-28 17:14:00,
2013-08-28 12:19:00,79.5,69.7,29.97,NNW,337,0.0,37.0,72,0.00,,,0.00,WUHU21023XXSP,2013-08-28 17:19:00,
2013-08-28 12:24:00,79.5,69.7,29.97,NNW,337,0.0,39.0,72,0.00,,,0.00,WUHU21023XXSP,2013-08-28 17:24:00,
2013-08-28 12:30:00,79.5,69.3,29.97,NW,315,0.0,39.0,71,0.00,,,0.00,WUHU21023XXSP,2013-08-28 17:30:00,
2013-08-28 12:35:00,79.5,69.3,29.96,ENE,67,0.0,37.0,71,0.00,,,0.00,WUHU21023XXSP,2013-08-28 17:35:00,
2013-08-28 12:41:00,79.9,69.7,29.97,ENE,67,33.0,37.0,71,0.00,,,0.00,WUHU21023XXSP,2013-08-28 17:41:00,
2013-08-28 12:47:00,80.2,70.0,29.97,NW,315,26.0,42.0,71,0.00,,,0.00,WUHU21023XXSP,2013-08-28 17:47:00,
2013-08-28 12:52:00,80.2,70.0,29.96,ENE,67,0.0,42.0,71,0.00,,,0.00,WUHU21023XXSP,2013-08-28 17:52:00,
2013-08-28 12:58:00,80.4,70.2,29.97,ENE,67,39.0,39.0,70,0.00,,,0.00,WUHU21023XXSP,2013-08-28 17:58:00,
2013-08-28 13:03:00,80.6,70.4,29.97,NNW,337,27.0,39.0,71,0.00,,,0.00,WUHU21023XXSP,2013-08-28 18:03:00,
2013-08-28 13:10:00,80.8,70.1,29.97,SE,135,0.0,34.0,70,0.00,,,0.00,WUHU21023XXSP,2013-08-28 18:10:00,
2013-08-28 13:17:00,81.0,70.3,29.97,NNE,22,0.0,38.0,70,0.00,,,0.00,WUHU21023XXSP,2013-08-28 18:17:00,
2013-08-28 13:22:00,81.1,70.5,29.97,ENE,67,0.0,28.0,70,0.00,,,0.00,WUHU21023XXSP,2013-08-28 18:22:00,
2013-08-28 13:29:00,81.1,70.0,29.97,ENE,67,30.0,30.0,69,0.00,,,0.00,WUHU21023XXSP,2013-08-28 18:29:00,
2013-08-28 13:35:00,81.1,70.0,29.97,SW,225,13.0,30.0,69,0.00,,,0.00,WUHU21023XXSP,2013-08-28 18:35:00,
2013-08-28 13:40:00,81.3,70.6,29.97,East,90,26.0,30.0,70,0.00,,,0.00,WUHU21023XXSP,2013-08-28 18:40:00,
2013-08-28 13:46:00,81.7,70.5,29.97,NW,315,35.0,35.0,69,0.00,,,0.00,WUHU21023XXSP,2013-08-28 18:46:00,
2013-08-28 13:52:00,82.0,70.8,29.97,WNW,292,35.0,35.0,69,0.00,,,0.00,WUHU21023XXSP,2013-08-28 18:52:00,
2013-08-28 13:58:00,82.2,71.0,29.97,NW,315,0.0,35.0,69,0.00,,,0.00,WUHU21023XXSP,2013-08-28 18:58:00,
2013-08-28 14:05:00,82.2,71.0,29.97,NNE,22,33.0,33.0,69,0.00,,,0.00,WUHU21023XXSP,2013-08-28 19:05:00,
2013-08-28 14:11:00,82.6,70.9,29.97,NNE,22,27.0,35.0,68,0.00,,,0.00,WUHU21023XXSP,2013-08-28 19:11:00,
2013-08-28 14:18:00,82.6,70.9,29.97,East,90,34.0,35.0,68,0.00,,,0.00,WUHU21023XXSP,2013-08-28 19:18:00,
2013-08-28 14:23:00,82.9,71.2,29.97,East,90,0.0,34.0,68,0.00,,,0.00,WUHU21023XXSP,2013-08-28 19:23:00,
2013-08-28 14:30:00,83.1,71.4,29.97,NE,45,0.0,26.0,68,0.00,,,0.00,WUHU21023XXSP,2013-08-28 19:30:00,
2013-08-28 14:37:00,83.3,71.6,29.97,ENE,67,0.0,0.0,68,0.00,,,0.00,WUHU21023XXSP,2013-08-28 19:37:00,
2013-08-28 14:43:00,83.5,71.3,29.96,ENE,67,0.0,0.0,67,0.00,,,0.00,WUHU21023XXSP,2013-08-28 19:43:00,
2013-08-28 14:50:00,84.0,71.4,29.96,NNE,22,0.0,0.0,66,0.00,,,0.00,WUHU21023XXSP,2013-08-28 19:50:00,
2013-08-28 14:56:00,84.6,71.9,29.96,ENE,67,0.0,0.0,66,0.00,,,0.00,WUHU21023XXSP,2013-08-28 19:56:00,
2013-08-28 15:03:00,84.7,72.1,29.96,ENE,67,0.0,0.0,66,0.00,,,0.00,WUHU21023XXSP,2013-08-28 20:03:00,
2013-08-28 15:08:00,84.7,71.7,29.96,NE,45,0.0,0.0,65,0.00,,,0.00,WUHU21023XXSP,2013-08-28 20:08:00,
2013-08-28 15:13:00,84.7,72.1,29.97,NNE,22,0.0,0.0,66,0.00,,,0.00,WUHU21023XXSP,2013-08-28 20:13:00,
2013-08-28 15:20:00,85.1,72.0,29.96,ENE,67,0.0,0.0,65,0.00,,,0.00,WUHU21023XXSP,2013-08-28 20:20:00,
2013-08-28 15:27:00,85.8,72.2,29.96,ENE,67,0.0,0.0,64,0.00,,,0.00,WUHU21023XXSP,2013-08-28 20:27:00,
2013-08-28 15:33:00,86.7,72.6,29.96,ESE,112,0.0,0.0,63,0.00,,,0.00,WUHU21023XXSP,2013-08-28 20:33:00,
2013-08-28 15:39:00,86.9,72.3,29.96,ENE,67,0.0,0.0,62,0.00,,,0.00,WUHU21023XXSP,2013-08-28 20:39:00,
2013-08-28 15:46:00,86.9,72.3,29.97,ENE,67,0.0,0.0,62,0.00,,,0.00,WUHU21023XXSP,2013-08-28 20:46:00,
2013-08-28 15:52:00,86.7,72.2,29.97,ENE,67,6.0,6.0,62,0.00,,,0.00,WUHU21023XXSP,2013-08-28 20:52:00,
2013-08-28 15:59:00,86.2,71.8,29.98,North,0,0.0,6.0,62,0.00,,,0.00,WUHU21023XXSP,2013-08-28 20:59:00,
2013-08-28 16:04:00,85.6,71.6,29.98,ENE,67,0.0,0.0,63,0.00,,,0.00,WUHU21023XXSP,2013-08-28 21:04:00,
2013-08-28 16:10:00,84.9,71.4,29.98,NE,45,0.0,0.0,64,0.00,,,0.00,WUHU21023XXSP,2013-08-28 21:10:00,
2013-08-28 16:16:00,84.4,70.9,29.98,ESE,112,0.0,0.0,64,0.00,,,0.00,WUHU21023XXSP,2013-08-28 21:16:00,
2013-08-28 16:23:00,84.0,70.5,29.98,NE,45,0.0,15.0,64,0.00,,,0.00,WUHU21023XXSP,2013-08-28 21:23:00,
2013-08-28 16:29:00,84.0,71.0,29.97,SSE,157,0.0,0.0,65,0.00,,,0.00,WUHU21023XXSP,2013-08-28 21:29:00,
2013-08-28 16:36:00,83.7,70.6,29.97,East,90,0.0,0.0,65,0.00,,,0.00,WUHU21023XXSP,2013-08-28 21:36:00,
2013-08-28 16:42:00,83.3,70.3,29.97,ENE,67,0.0,0.0,65,0.00,,,0.00,WUHU21023XXSP,2013-08-28 21:42:00,
2013-08-28 16:48:00,83.3,70.7,29.98,ESE,112,0.0,0.0,66,0.00,,,0.00,WUHU21023XXSP,2013-08-28 21:48:00,
2013-08-28 16:54:00,83.3,70.7,29.98,ENE,67,40.0,40.0,66,0.00,,,0.00,WUHU21023XXSP,2013-08-28 21:54:00,
2013-08-28 16:59:00,83.3,70.7,29.98,ENE,67,5.0,40.0,66,0.00,,,0.00,WUHU21023XXSP,2013-08-28 21:59:00,
2013-08-28 17:06:00,83.1,70.1,29.98,East,90,23.0,35.0,65,0.00,,,0.00,WUHU21023XXSP,2013-08-28 22:06:00,
2013-08-28 17:12:00,83.1,70.1,29.98,ESE,112,0.0,37.0,65,0.00,,,0.00,WUHU21023XXSP,2013-08-28 22:12:00,
2013-08-28 17:17:00,82.9,69.9,29.99,NE,45,25.0,37.0,65,0.00,,,0.00,WUHU21023XXSP,2013-08-28 22:17:00,
2013-08-28 17:22:00,82.8,69.7,29.98,NNE,22,0.0,34.0,65,0.00,,,0.00,WUHU21023XXSP,2013-08-28 22:22:00,
2013-08-28 17:28:00,82.6,69.5,29.98,ESE,112,0.0,36.0,65,0.00,,,0.00,WUHU21023XXSP,2013-08-28 22:28:00,
2013-08-28 17:34:00,82.4,69.3,29.98,North,0,29.0,36.0,65,0.00,,,0.00,WUHU21023XXSP,2013-08-28 22:34:00,
2013-08-28 17:41:00,82.2,69.2,29.98,ENE,67,0.0,29.0,65,0.00,,,0.00,WUHU21023XXSP,2013-08-28 22:41:00,
2013-08-28 17:47:00,82.0,69.0,29.98,ESE,112,0.0,35.0,65,0.00,,,0.00,WUHU21023XXSP,2013-08-28 22:47:00,
2013-08-28 17:54:00,81.7,68.7,29.98,ENE,67,0.0,34.0,65,0.00,,,0.00,WUHU21023XXSP,2013-08-28 22:54:00,
2013-08-28 18:00:00,81.5,69.0,29.99,East,90,0.0,34.0,66,0.00,,,0.00,WUHU21023XXSP,2013-08-28 23:00:00,
2013-08-28 18:07:00,81.3,68.8,29.99,East,90,0.0,0.0,66,0.00,,,0.00,WUHU21023XXSP,2013-08-28 23:07:00,
2013-08-28 18:14:00,81.1,68.7,29.99,ENE,67,0.0,29.0,66,0.00,,,0.00,WUHU21023XXSP,2013-08-28 23:14:00,
2013-08-28 18:21:00,80.8,68.8,29.99,ESE,112,0.0,29.0,67,0.00,,,0.00,WUHU21023XXSP,2013-08-28 23:21:00,
2013-08-28 18:28:00,80.4,68.5,29.98,ENE,67,29.0,32.0,67,0.00,,,0.00,WUHU21023XXSP,2013-08-28 23:28:00,
2013-08-28 18:33:00,80.4,68.5,29.99,ESE,112,0.0,32.0,67,0.00,,,0.00,WUHU21023XXSP,2013-08-28 23:33:00,
2013-08-28 18:40:00,79.9,67.9,29.99,ENE,67,0.0,29.0,67,0.00,,,0.00,WUHU21023XXSP,2013-08-28 23:40:00,
2013-08-28 18:46:00,79.7,67.7,29.99,ENE,67,0.0,3.0,67,0.00,,,0.00,WUHU21023XXSP,2013-08-28 23:46:00,
2013-08-28 18:52:00,79.5,67.6,29.99,ESE,112,0.0,18.0,67,0.00,,,0.00,WUHU21023XXSP,2013-08-28 23:52:00,
2013-08-28 18:59:00,79.2,67.2,29.99,SE,135,0.0,18.0,67,0.00,,,0.00,WUHU21023XXSP,2013-08-28 23:59:00,
2013-08-28 19:05:00,79.0,67.0,29.99,NE,45,0.0,0.0,67,0.00,,,0.00,WUHU21023XXSP,2013-08-29 00:05:00,
2013-08-28 19:12:00,78.6,66.7,30.00,ENE,67,0.0,0.0,67,0.00,,,0.00,WUHU21023XXSP,2013-08-29 00:12:00,
2013-08-28 19:18:00,78.1,66.2,29.99,East,90,0.0,0.0,67,0.00,,,0.00,WUHU21023XXSP,2013-08-29 00:18:00,
2013-08-28 19:25:00,77.7,65.9,30.00,ENE,67,0.0,0.0,67,0.00,,,0.00,WUHU21023XXSP,2013-08-29 00:25:00,
2013-08-28 19:31:00,77.4,66.0,30.00,SE,135,0.0,0.0,68,0.00,,,0.00,WUHU21023XXSP,2013-08-29 00:31:00,
2013-08-28 19:37:00,77.0,65.7,30.00,SE,135,0.0,0.0,68,0.00,,,0.00,WUHU21023XXSP,2013-08-29 00:37:00,
2013-08-28 19:44:00,76.6,65.3,30.00,ENE,67,0.0,0.0,68,0.00,,,0.00,WUHU21023XXSP,2013-08-29 00:44:00,
2013-08-28 19:50:00,76.1,64.8,30.00,ENE,67,0.0,0.0,68,0.00,,,0.00,WUHU21023XXSP,2013-08-29 00:50:00,
2013-08-28 19:57:00,75.7,64.8,30.00,ENE,67,0.0,0.0,69,0.00,,,0.00,WUHU21023XXSP,2013-08-29 00:57:00,
2013-08-28 20:03:00,75.4,64.9,30.00,NE,45,0.0,0.0,70,0.00,,,0.00,WUHU21023XXSP,2013-08-29 01:03:00,
2013-08-28 20:09:00,75.0,65.0,30.00,East,90,0.0,0.0,71,0.00,,,0.00,WUHU21023XXSP,2013-08-29 01:09:00,
2013-08-28 20:16:00,74.5,64.5,30.01,ENE,67,0.0,0.0,71,0.00,,,0.00,WUHU21023XXSP,2013-08-29 01:16:00,
2013-08-28 20:22:00,74.1,64.5,30.02,ENE,67,0.0,0.0,72,0.00,,,0.00,WUHU21023XXSP,2013-08-29 01:22:00,
2013-08-28 20:29:00,73.9,64.8,30.02,ENE,67,0.0,0.0,73,0.00,,,0.00,WUHU21023XXSP,2013-08-29 01:29:00,
2013-08-28 20:35:00,73.6,64.4,30.02,ENE,67,0.0,0.0,73,0.00,,,0.00,WUHU21023XXSP,2013-08-29 01:35:00,
2013-08-28 20:42:00,73.2,64.5,30.02,ENE,67,0.0,0.0,74,0.00,,,0.00,WUHU21023XXSP,2013-08-29 01:42:00,
2013-08-28 20:48:00,72.9,64.1,30.01,ENE,67,0.0,0.0,74,0.00,,,0.00,WUHU21023XXSP,2013-08-29 01:48:00,
2013-08-28 20:54:00,72.5,63.8,30.02,East,90,0.0,0.0,74,0.00,,,0.00,WUHU21023XXSP,2013-08-29 01:54:00,
2013-08-28 21:01:00,72.3,63.6,30.02,ESE,112,0.0,0.0,74,0.00,,,0.00,WUHU21023XXSP,2013-08-29 02:01:00,
2013-08-28 21:07:00,72.3,64.0,30.02,ESE,112,0.0,0.0,75,0.00,,,0.00,WUHU21023XXSP,2013-08-29 02:07:00,
2013-08-28 21:14:00,72.1,63.8,30.02,ESE,112,0.0,0.0,75,0.00,,,0.00,WUHU21023XXSP,2013-08-29 02:14:00,
2013-08-28 21:20:00,72.0,63.6,30.03,ESE,112,0.0,0.0,75,0.00,,,0.00,WUHU21023XXSP,2013-08-29 02:20:00,
2013-08-28 21:26:00,71.8,63.4,30.02,ESE,112,0.0,0.0,75,0.00,,,0.00,WUHU21023XXSP,2013-08-29 02:26:00,
2013-08-28 21:33:00,71.4,63.0,30.02,ESE,112,0.0,0.0,75,0.00,,,0.00,WUHU21023XXSP,2013-08-29 02:33:00,
2013-08-28 21:39:00,71.2,63.2,30.02,ESE,112,0.0,0.0,76,0.00,,,0.00,WUHU21023XXSP,2013-08-29 02:39:00,
2013-08-28 21:46:00,71.1,62.7,30.02,ESE,112,0.0,0.0,75,0.00,,,0.00,WUHU21023XXSP,2013-08-29 02:46:00,
2013-08-28 21:52:00,70.7,62.9,30.02,ESE,112,0.0,0.0,76,0.00,,,0.00,WUHU21023XXSP,2013-08-29 02:52:00,
2013-08-28 21:59:00,70.3,62.5,30.03,ESE,112,0.0,0.0,76,0.00,,,0.00,WUHU21023XXSP,2013-08-29 02:59:00,
2013-08-28 22:05:00,70.2,62.2,30.02,ESE,112,0.0,0.0,76,0.00,,,0.00,WUHU21023XXSP,2013-08-29 03:05:00,
2013-08-28 22:11:00,69.8,61.8,30.02,ESE,112,0.0,0.0,76,0.00,,,0.00,WUHU21023XXSP,2013-08-29 03:11:00,
2013-08-28 22:18:00,69.6,62.0,30.02,ESE,112,0.0,0.0,77,0.00,,,0.00,WUHU21023XXSP,2013-08-29 03:18:00,
2013-08-28 22:24:00,69.4,61.9,30.02,ESE,112,0.0,0.0,77,0.00,,,0.00,WUHU21023XXSP,2013-08-29 03:24:00,
2013-08-28 22:31:00,69.4,61.9,30.02,ESE,112,0.0,0.0,77,0.00,,,0.00,WUHU21023XXSP,2013-08-29 03:31:00,
2013-08-28 22:37:00,69.1,61.5,30.02,ESE,112,0.0,0.0,77,0.00,,,0.00,WUHU21023XXSP,2013-08-29 03:37:00,
2013-08-28 22:44:00,68.9,61.4,30.03,ESE,112,0.0,0.0,77,0.00,,,0.00,WUHU21023XXSP,2013-08-29 03:44:00,
2013-08-28 22:50:00,68.7,61.2,30.03,ESE,112,0.0,0.0,77,0.00,,,0.00,WUHU21023XXSP,2013-08-29 03:50:00,
2013-08-28 22:56:00,68.4,60.9,30.03,ESE,112,0.0,0.0,77,0.00,,,0.00,WUHU21023XXSP,2013-08-29 03:56:00,
2013-08-28 23:01:00,68.4,60.9,30.02,ESE,112,0.0,0.0,77,0.00,,,0.00,WUHU21023XXSP,2013-08-29 04:01:00,
2013-08-28 23:07:00,68.2,60.7,30.02,ESE,112,0.0,0.0,77,0.00,,,0.00,WUHU21023XXSP,2013-08-29 04:07:00,
2013-08-28 23:09:00,68.2,60.7,30.02,ESE,112,0.0,0.0,77,0.00,,,0.00,WUHU21023XXSP,2013-08-29 04:09:00,
2013-08-28 23:14:00,67.8,60.4,30.02,ESE,112,0.0,0.0,77,0.00,,,0.00,WUHU21023XXSP,2013-08-29 04:14:00,
2013-08-28 23:18:00,67.8,60.4,30.02,ESE,112,0.0,0.0,77,0.00,,,0.00,WUHU21023XXSP,2013-08-29 04:18:00,
2013-08-28 23:22:00,67.6,60.2,30.02,ESE,112,0.0,0.0,77,0.00,,,0.00,WUHU21023XXSP,2013-08-29 04:22:00,
2013-08-28 23:29:00,67.5,60.4,30.02,ESE,112,0.0,0.0,78,0.00,,,0.00,WUHU21023XXSP,2013-08-29 04:29:00,
2013-08-28 23:35:00,67.3,60.2,30.02,ESE,112,0.0,0.0,78,0.00,,,0.00,WUHU21023XXSP,2013-08-29 04:35:00,
2013-08-28 23:41:00,67.1,60.0,30.02,ESE,112,0.0,0.0,78,0.00,,,0.00,WUHU21023XXSP,2013-08-29 04:41:00,
2013-08-28 23:48:00,66.9,59.9,30.02,ESE,112,0.0,0.0,78,0.00,,,0.00,WUHU21023XXSP,2013-08-29 04:48:00,
2013-08-28 23:54:00,66.7,59.7,30.01,ESE,112,0.0,0.0,78,0.00,,,0.00,WUHU21023XXSP,2013-08-29 04:54:00,